Kobuk Valley National Park, AK

3:56 AM AKDT op 21 oktober 2014 (GMT -0800)
Baker Memorial | Change Station
CLOSE
Current Station
Luchthaven
Location: Kiana,
Geometrische hoogte: 151 ft
Nabije weerstations

Hoogte 151 ft 66.98 °N, 160.44 °W | Updated 55 minutes ago

Overcast
Geheel bewolkt
31 °F
Voelt als 24 °F
N
8
Wind Variabel Wind van noord

Vandaag
Hoog -- | Laag -- °F
--% Kans op neerslag
Gisteren
Hoog -- | Laag -- °F
Precip. -- inches
10:06 AM 6:43 PM
Afnemende halvemaan, 6% visible
Druk 29.63 inches
Zicht 10.0 mijlen
Wolken Licht bewolkt 7500 ft
Geheel bewolkt 9500 ft
Gevoelstemperatuur 24 °F
Dauwpunt 21 °F
Vochtigheid 67%
Neerslag 0.00 inches
Dikte sneeuw Niet beschikbaar.
UV 0 van de 12
Pollen Niet beschikbaar.
Luchtkwaliteit Niet beschikbaar.
Flu Activity Sporadic
METAR PAIK 211101Z AUTO 35007KT 10SM SCT075 OVC095 M01/M06 A2950 RMK AO2 SLP032 T10061061 FZRANO

More Conditions Fewer Conditions

Druk 29.63 inches
Zicht 10.0 mijlen
Wolken Licht bewolkt 7500 ft
Geheel bewolkt 9500 ft
Gevoelstemperatuur 24 °F
Dauwpunt 21 °F
Vochtigheid 67%
Neerslag 0.00 inches
Dikte sneeuw Niet beschikbaar.
UV 0 van de 12
Pollen Niet beschikbaar.
Luchtkwaliteit Niet beschikbaar.
Flu Activity Sporadic
METAR PAIK 211101Z AUTO 35007KT 10SM SCT075 OVC095 M01/M06 A2950 RMK AO2 SLP032 T10061061 FZRANO

More Conditions Fewer Conditions

10-Day Weather Forecast

Almanac

Astronomie

Oct. 21, 2014 Opkomst Ondergang
Werkelijke tijd 10:06 AM AKDT 6:43 PM AKDT
Burgerlijke schemering 9:08 AM AKDT 7:41 PM AKDT
Nautische schemering 8:04 AM AKDT 8:44 PM AKDT
Astronomische schemering 7:01 AM AKDT 9:48 PM AKDT
Maan 7:08 AM AKDT 6:26 PM AKDT
Golflengte van het zichtbare licht 10h 33m
Daglengte
8h 37m
Tomorrow will be 7m 51s shorter.
Afnemende halvemaan, 6% of the Moon is Illuminated
Vandaag
Afnemende halvemaan
oktober 23
Nieuw
oktober 30
Eerste kwartier
nov 6
Volle maan
nov 14
Laatste kwartier

Extremen vandaag

State Highs State Lows

Community

WunderPhotos

Upload Photos

1,763,631 foto’s ge-upload!

Nearby

Luchtkwaliteit

Not available.

Dikte sneeuw

Station Depth Geometrische hoogte
Rocky Point 2 in 500 ft
Gobblers Knob 1 in 2030 ft
Coldfoot 4 in 1040 ft
Atigun Pass 13 in 4800 ft
Imnaviat Creek 21 in 3050 ft

Aardbevingen

Stad Distance Mag. Time & Date
No recent earthquake activity has been reported nearby.
Minimum magnitude displayed is 2.5.

Watertemperatuur langs de kust

Plaats Temperatuur
Geen meldingen van stations

Nabije weerstations